Time;durP1;ratioP1;P1;durP2;ratioP2;P2;SDS_P1;SDS_P2;PMS_P1;PMS_P2;Temp;Humidity;BMP_temperature;BMP_pressure;BME280_temperature;BME280_humidity;BME280_pressure;Samples;Min_cycle;Max_cycle;Signal;HPM_P1;HPM_P2
2022/03/22 00:00:36;;;;;;;;;30.50;29.50;;;;;11.69;60.28;102592.59;5112481;27;49803;-67
2022/03/22 00:03:02;;;;;;;;;36.50;32.00;;;;;11.40;60.09;102544.84;5112310;27;50000;-67
2022/03/22 00:05:28;;;;;;;;;35.75;33.50;;;;;11.59;60.34;102574.63;5112561;27;49869;-67
2022/03/22 00:07:53;;;;;;;;;27.50;24.25;;;;;11.64;60.34;102595.00;5112071;27;55745;-67
2022/03/22 00:10:20;;;;;;;;;36.75;34.75;;;;;11.52;60.46;102577.78;5112068;27;49734;-67
2022/03/22 00:12:47;;;;;;;;;34.50;30.25;;;;;11.55;60.42;102591.06;5110749;27;49760;-67
2022/03/22 00:15:13;;;;;;;;;39.75;37.25;;;;;11.60;60.73;102602.72;5112075;27;49682;-67
2022/03/22 00:17:38;;;;;;;;;30.25;29.25;;;;;11.58;60.67;102601.72;5111886;27;50806;-69
2022/03/22 00:20:05;;;;;;;;;36.50;32.75;;;;;11.43;60.51;102579.16;5112289;27;50012;-67
2022/03/22 00:22:31;;;;;;;;;31.25;30.25;;;;;11.55;60.58;102606.84;5112154;27;49817;-67
2022/03/22 00:24:56;;;;;;;;;35.50;33.75;;;;;11.24;60.78;102560.72;5112019;27;50015;-67
2022/03/22 00:27:22;;;;;;;;;29.50;28.00;;;;;11.34;60.99;102583.09;5112013;27;50773;-67
2022/03/22 00:29:48;;;;;;;;;33.25;32.50;;;;;11.46;60.56;102602.94;5111535;27;49712;-67
2022/03/22 00:32:14;;;;;;;;;27.50;24.50;;;;;11.46;60.63;102608.22;5111941;27;50559;-67
2022/03/22 00:34:44;;;;;;;;;33.25;30.00;;;;;11.45;60.72;102605.53;5111933;27;50289;-67
2022/03/22 00:37:18;;;;;;;;;34.50;30.25;;;;;11.41;60.93;102607.13;5111702;27;49812;-67
2022/03/22 00:39:45;;;;;;;;;35.25;34.25;;;;;11.31;61.45;102598.72;5111725;27;49975;-67
2022/03/22 00:42:14;;;;;;;;;33.00;26.25;;;;;10.93;61.41;102532.09;5111930;27;49894;-67
2022/03/22 00:44:39;;;;;;;;;35.75;29.75;;;;;11.37;61.45;102606.88;5105526;27;49793;-67
2022/03/22 00:47:07;;;;;;;;;11.25;11.00;;;;;11.31;61.51;102610.16;5111464;27;50223;-67
2022/03/22 00:49:33;;;;;;;;;28.75;26.25;;;;;10.76;61.88;102512.00;5104884;27;49823;-67
2022/03/22 00:52:01;;;;;;;;;36.75;28.50;;;;;11.08;61.59;102571.34;5111183;27;49749;-67
2022/03/22 00:54:28;;;;;;;;;33.75;27.00;;;;;11.30;61.42;102610.09;5111883;27;49775;-67
2022/03/22 00:56:54;;;;;;;;;29.00;29.00;;;;;11.27;61.77;102616.06;5109844;27;50380;-67
2022/03/22 01:02:04;;;;;;;;;41.50;34.75;;;;;11.23;61.52;102611.50;5111358;27;49811;-67
2022/03/22 01:04:29;;;;;;;;;42.00;34.00;;;;;11.22;61.36;102621.97;5111695;27;50068;-67
2022/03/22 01:06:55;;;;;;;;;36.75;30.25;;;;;11.13;61.57;102604.00;5109596;27;50526;-67
2022/03/22 01:09:20;;;;;;;;;30.75;30.25;;;;;11.16;61.61;102607.69;5110975;27;49816;-67
2022/03/22 01:11:47;;;;;;;;;36.75;33.50;;;;;11.18;61.76;102620.88;5111481;27;49784;-67
2022/03/22 01:14:12;;;;;;;;;31.75;24.75;;;;;11.13;62.02;102611.91;5104978;27;49976;-67
2022/03/22 01:16:39;;;;;;;;;34.75;30.50;;;;;11.16;61.93;102618.19;5111120;27;50609;-66
2022/03/22 01:19:05;;;;;;;;;41.75;31.50;;;;;11.13;61.61;102615.44;5111286;27;49772;-66
2022/03/22 01:21:31;;;;;;;;;33.50;32.50;;;;;10.87;61.83;102576.47;5111307;27;50064;-67
2022/03/22 01:23:58;;;;;;;;;32.00;26.75;;;;;10.78;61.81;102553.28;5113567;27;49864;-67
2022/03/22 01:26:24;;;;;;;;;30.75;29.25;;;;;10.93;62.21;102589.91;5114258;27;49595;-67
2022/03/22 01:28:50;;;;;;;;;33.00;30.75;;;;;11.02;62.12;102606.13;5114727;27;49874;-67
2022/03/22 01:31:16;;;;;;;;;33.25;31.00;;;;;10.91;62.30;102593.31;5114831;27;49772;-67
2022/03/22 01:33:41;;;;;;;;;32.75;29.25;;;;;10.95;62.24;102611.00;5115007;27;49780;-67
2022/03/22 01:36:07;;;;;;;;;36.00;30.75;;;;;10.73;62.47;102574.91;5114696;27;50771;-67
2022/03/22 01:38:32;;;;;;;;;30.75;29.25;;;;;10.65;62.52;102565.75;5114723;27;49780;-67
2022/03/22 01:40:57;;;;;;;;;31.00;28.50;;;;;10.84;62.74;102606.13;5114551;27;49830;-67
2022/03/22 01:43:23;;;;;;;;;36.00;32.75;;;;;10.73;62.56;102588.03;5114459;27;49899;-67
2022/03/22 01:45:49;;;;;;;;;37.75;34.75;;;;;10.79;62.87;102606.72;5114308;27;50538;-67
2022/03/22 01:48:15;;;;;;;;;38.00;33.75;;;;;10.76;63.04;102603.94;5114486;27;49698;-67
2022/03/22 01:50:41;;;;;;;;;37.00;32.25;;;;;10.63;62.85;102583.16;5113110;27;49938;-67
2022/03/22 01:53:10;;;;;;;;;29.50;28.00;;;;;10.65;62.04;102582.41;5114907;27;49751;-67
2022/03/22 01:55:36;;;;;;;;;34.75;34.50;;;;;10.70;62.52;102585.25;5114438;27;50353;-67
2022/03/22 01:58:03;;;;;;;;;36.50;34.00;;;;;10.68;62.45;102585.19;5114111;27;49775;-67
2022/03/22 02:00:28;;;;;;;;;30.75;27.50;;;;;10.73;62.32;102583.69;5114348;27;49918;-67
2022/03/22 02:05:55;;;;;;;;;35.50;31.75;;;;;10.70;62.47;102585.25;5114116;27;49907;-69
2022/03/22 02:08:29;;;;;;;;;34.25;32.00;;;;;10.24;62.10;102519.97;5114182;27;49832;-69
2022/03/22 02:10:58;;;;;;;;;35.75;29.50;;;;;10.60;62.40;102586.53;5107869;27;49732;-67
2022/03/22 02:13:24;;;;;;;;;35.25;28.25;;;;;10.55;61.72;102586.31;5114460;27;49813;-67
2022/03/22 02:15:52;;;;;;;;;41.00;35.00;;;;;10.62;61.51;102587.53;5113831;27;50316;-67
2022/03/22 02:18:18;;;;;;;;;39.25;34.50;;;;;10.46;61.90;102553.44;5113944;27;49797;-67
2022/03/22 02:20:45;;;;;;;;;35.00;33.75;;;;;10.61;61.78;102590.94;5113759;27;49661;-67
2022/03/22 02:23:22;;;;;;;;;38.25;35.00;;;;;10.57;61.82;102587.28;5114240;27;49963;-67
2022/03/22 02:25:49;;;;;;;;;30.00;27.75;;;;;10.56;62.09;102595.97;5113723;27;50803;-67
2022/03/22 02:28:15;;;;;;;;;32.50;30.50;;;;;10.47;62.32;102578.88;5113883;27;49966;-67
2022/03/22 02:30:44;;;;;;;;;35.75;29.50;;;;;10.51;62.17;102597.47;5114133;27;49850;-67
2022/03/22 02:33:09;;;;;;;;;34.50;33.75;;;;;10.43;62.23;102596.19;5113983;27;49704;-69
2022/03/22 02:35:35;;;;;;;;;41.50;37.00;;;;;10.43;61.63;102592.69;5113613;27;49764;-69
2022/03/22 02:38:00;;;;;;;;;33.25;31.75;;;;;10.36;62.58;102585.31;5113737;27;49862;-69
2022/03/22 02:40:26;;;;;;;;;30.00;27.75;;;;;10.11;61.85;102551.63;5113682;27;49804;-69
2022/03/22 02:42:54;;;;;;;;;34.25;31.00;;;;;10.01;62.74;102543.28;5113689;27;50082;-69
2022/03/22 02:45:21;;;;;;;;;30.25;28.25;;;;;10.29;61.69;102592.84;5113441;27;49821;-69
2022/03/22 02:47:47;;;;;;;;;39.50;35.50;;;;;10.33;61.63;102599.19;5113565;27;49663;-69
2022/03/22 02:50:13;;;;;;;;;31.75;28.75;;;;;10.11;62.12;102557.75;5113428;27;49900;-69
2022/03/22 02:52:40;;;;;;;;;33.50;30.75;;;;;10.29;61.90;102605.09;5113786;27;49987;-66
2022/03/22 02:55:07;;;;;;;;;34.25;31.00;;;;;10.20;61.11;102587.09;5113381;27;50637;-69
2022/03/22 02:57:34;;;;;;;;;33.25;30.50;;;;;10.05;61.97;102562.72;5113046;27;49600;-69
2022/03/22 02:59:59;;;;;;;;;37.00;32.00;;;;;10.30;61.88;102601.63;5113630;27;49717;-69
2022/03/22 03:02:25;;;;;;;;;34.00;30.25;;;;;10.01;61.21;102559.00;5113568;27;49622;-69
2022/03/22 03:04:50;;;;;;;;;38.75;33.00;;;;;10.29;61.61;102607.72;5111773;27;50858;-69
2022/03/22 03:07:16;;;;;;;;;35.00;32.75;;;;;9.99;61.06;102558.03;5113354;27;49715;-69
2022/03/22 03:09:41;;;;;;;;;34.25;31.75;;;;;10.22;61.44;102603.84;5113399;27;49993;-69
2022/03/22 03:12:07;;;;;;;;;42.00;34.75;;;;;10.01;61.08;102568.59;5113147;27;49786;-69
2022/03/22 03:14:41;;;;;;;;;38.00;34.25;;;;;10.15;61.04;102593.84;5112989;27;50581;-69
2022/03/22 03:17:09;;;;;;;;;35.75;31.75;;;;;10.20;61.18;102615.06;5113064;27;49763;-69
2022/03/22 03:19:34;;;;;;;;;31.75;29.00;;;;;10.12;61.58;102606.81;5112652;27;49710;-69
2022/03/22 03:22:02;;;;;;;;;33.75;30.25;;;;;10.16;61.03;102627.16;5113400;27;50027;-68
2022/03/22 03:24:28;;;;;;;;;39.00;35.75;;;;;10.16;61.14;102621.00;5111764;27;52163;-69
2022/03/22 03:26:53;;;;;;;;;36.00;34.00;;;;;10.03;60.74;102593.19;5112698;27;50047;-69
2022/03/22 03:29:18;;;;;;;;;31.75;28.50;;;;;10.14;60.33;102622.66;5112980;27;50002;-69
2022/03/22 03:31:43;;;;;;;;;36.25;32.75;;;;;10.13;60.53;102620.81;5111487;27;49961;-69
2022/03/22 03:34:09;;;;;;;;;37.75;35.50;;;;;9.63;61.37;102543.91;5112629;27;50677;-69
2022/03/22 03:36:35;;;;;;;;;29.00;26.00;;;;;10.14;59.79;102633.16;5112830;27;49714;-66
2022/03/22 03:39:03;;;;;;;;;32.75;29.25;;;;;10.16;59.53;102615.75;5113028;27;49573;-69
2022/03/22 03:47:09;;;;;;;;;26.00;26.00;;;;;9.94;58.22;102567.41;5112051;27;49825;-69
2022/03/22 03:49:36;;;;;;;;;31.25;27.50;;;;;10.21;58.14;102609.00;5106087;27;49749;-69
2022/03/22 03:52:06;;;;;;;;;26.75;24.00;;;;;10.19;59.03;102622.06;5112654;27;49777;-69
2022/03/22 03:54:32;;;;;;;;;37.25;32.25;;;;;10.11;58.39;102612.88;5112287;27;50724;-69
2022/03/22 03:56:57;;;;;;;;;25.50;23.50;;;;;10.07;58.10;102604.78;5112478;27;49700;-69
2022/03/22 03:59:23;;;;;;;;;34.25;31.50;;;;;10.13;57.61;102611.22;5111355;27;49910;-69
2022/03/22 04:01:49;;;;;;;;;35.25;32.00;;;;;10.20;58.05;102622.94;5112670;27;49943;-69
2022/03/22 04:04:14;;;;;;;;;31.00;27.00;;;;;10.19;57.92;102616.81;5112216;27;49807;-69
2022/03/22 04:06:39;;;;;;;;;34.75;32.25;;;;;10.18;58.22;102621.97;5112163;27;49819;-69
2022/03/22 04:09:05;;;;;;;;;24.00;24.00;;;;;9.86;58.42;102573.97;5112239;27;50113;-69
2022/03/22 04:11:30;;;;;;;;;27.75;26.50;;;;;10.16;58.39;102631.50;5112144;27;49907;-69
2022/03/22 04:13:55;;;;;;;;;25.50;25.50;;;;;10.16;57.64;102628.88;5112096;27;50263;-67
2022/03/22 04:16:21;;;;;;;;;21.50;21.25;;;;;9.52;57.93;102517.94;5111053;27;49708;-69
2022/03/22 04:18:46;;;;;;;;;32.50;26.50;;;;;10.12;57.45;102630.41;5112409;27;49800;-69
2022/03/22 04:21:11;;;;;;;;;26.75;26.75;;;;;10.18;57.48;102637.72;5112433;27;50043;-69
2022/03/22 04:23:37;;;;;;;;;30.00;28.50;;;;;10.17;57.53;102635.91;5112021;27;50925;-69
2022/03/22 04:26:03;;;;;;;;;24.50;24.00;;;;;10.01;57.05;102615.84;5112021;27;49737;-69
2022/03/22 04:33:57;;;;;;;;;24.00;24.00;;;;;9.99;56.28;102599.13;5111978;27;50064;-69
2022/03/22 04:36:22;;;;;;;;;27.25;24.75;;;;;10.12;57.08;102626.88;5112125;27;49744;-69
2022/03/22 04:38:48;;;;;;;;;30.50;29.00;;;;;9.95;56.42;102598.06;5112120;27;49993;-69
2022/03/22 04:41:13;;;;;;;;;26.75;24.75;;;;;9.87;56.52;102585.38;5111685;27;49860;-69
2022/03/22 04:43:39;;;;;;;;;22.25;20.75;;;;;10.12;56.57;102648.78;5111578;27;50367;-69
2022/03/22 04:46:04;;;;;;;;;27.00;27.00;;;;;9.89;56.76;102609.97;5111645;27;49868;-69
2022/03/22 04:48:30;;;;;;;;;24.75;23.75;;;;;9.93;57.96;102630.28;5111780;27;49952;-69
2022/03/22 04:59:07;;;;;;;;;34.00;30.25;;;;;9.79;57.69;102634.78;5110828;27;50483;-69
2022/03/22 05:01:32;;;;;;;;;28.75;27.75;;;;;9.81;58.25;102646.25;5111790;27;49884;-69
2022/03/22 05:03:58;;;;;;;;;29.50;24.00;;;;;9.87;57.67;102659.72;5111209;27;49827;-68
2022/03/22 05:06:26;;;;;;;;;27.50;27.00;;;;;9.67;57.63;102634.13;5111530;27;49758;-69
2022/03/22 05:08:54;;;;;;;;;27.00;24.75;;;;;9.75;57.38;102646.84;5111775;27;49679;-69
2022/03/22 05:11:20;;;;;;;;;24.00;24.00;;;;;9.77;57.13;102652.19;5111728;27;50171;-69
2022/03/22 05:13:45;;;;;;;;;29.00;28.00;;;;;9.78;57.24;102650.47;5111171;27;49624;-69
2022/03/22 05:16:11;;;;;;;;;25.50;24.00;;;;;9.45;56.73;102590.09;5111261;27;49972;-69
2022/03/22 05:18:36;;;;;;;;;25.25;23.00;;;;;9.66;56.60;102624.47;5111468;27;49807;-69
2022/03/22 05:21:04;;;;;;;;;34.50;26.75;;;;;9.20;56.15;102545.03;5111517;27;49785;-69
2022/03/22 05:23:30;;;;;;;;;28.75;25.75;;;;;9.89;56.77;102673.81;5113908;27;49883;-69
2022/03/22 05:25:56;;;;;;;;;34.75;31.25;;;;;9.61;57.51;102642.56;5111068;27;49814;-69
2022/03/22 05:28:21;;;;;;;;;33.25;26.50;;;;;9.82;56.82;102676.91;5111119;27;49869;-69
2022/03/22 05:30:47;;;;;;;;;24.50;22.75;;;;;9.67;56.75;102661.25;5109965;27;49699;-69
2022/03/22 05:33:12;;;;;;;;;26.25;26.25;;;;;9.80;56.92;102680.28;5110965;27;49779;-68
2022/03/22 05:35:38;;;;;;;;;26.75;25.25;;;;;9.83;56.47;102683.06;5111149;27;49704;-69
2022/03/22 05:38:03;;;;;;;;;32.75;25.50;;;;;9.56;56.07;102630.94;5111001;27;49626;-69
2022/03/22 05:40:29;;;;;;;;;28.75;25.25;;;;;9.71;57.18;102671.09;5111086;27;50118;-69
2022/03/22 05:42:54;;;;;;;;;34.00;29.75;;;;;9.78;56.48;102687.19;5110686;27;49626;-69
2022/03/22 05:45:20;;;;;;;;;33.00;28.25;;;;;9.76;56.69;102692.34;5111061;27;49636;-68
2022/03/22 05:47:45;;;;;;;;;30.25;26.00;;;;;9.45;57.00;102639.91;5111040;27;49926;-69
2022/03/22 05:50:11;;;;;;;;;29.00;25.50;;;;;9.74;57.58;102692.22;5111000;27;49694;-69
2022/03/22 05:52:42;;;;;;;;;29.75;26.00;;;;;9.74;57.06;102694.84;5110615;27;49724;-68
2022/03/22 05:55:08;;;;;;;;;33.00;25.25;;;;;9.62;56.43;102682.78;5110761;27;49928;-68
2022/03/22 05:57:33;;;;;;;;;26.00;23.00;;;;;9.69;57.33;102701.59;5110501;27;49816;-68
2022/03/22 05:59:59;;;;;;;;;23.00;19.00;;;;;9.60;57.03;102690.59;5111098;27;49798;-69
2022/03/22 06:02:24;;;;;;;;;29.75;25.25;;;;;9.41;57.24;102670.31;5110776;27;50709;-68
2022/03/22 06:04:49;;;;;;;;;24.25;24.25;;;;;9.66;57.02;102706.66;5114025;27;49747;-68
2022/03/22 06:07:15;;;;;;;;;23.75;21.25;;;;;9.66;56.07;102698.81;5115354;27;50510;-68
2022/03/22 06:09:41;;;;;;;;;27.25;23.50;;;;;9.77;55.98;102709.88;5119402;27;49749;-68
2022/03/22 06:12:07;;;;;;;;;31.00;29.25;;;;;9.82;55.79;102712.75;5118977;27;50472;-68
2022/03/22 06:14:32;;;;;;;;;32.75;27.50;;;;;9.62;55.61;102674.94;5118421;27;50073;-69
2022/03/22 06:16:57;;;;;;;;;26.00;24.75;;;;;9.84;56.26;102712.00;5123452;27;49780;-68
2022/03/22 06:19:23;;;;;;;;;33.25;30.50;;;;;9.49;56.31;102652.38;5121604;27;49632;-68
2022/03/22 06:21:49;;;;;;;;;27.75;26.25;;;;;9.80;55.71;102699.53;5119388;27;49859;-68
2022/03/22 06:24:14;;;;;;;;;30.50;27.25;;;;;9.74;56.22;102692.22;5117393;27;49636;-68
2022/03/22 06:26:39;;;;;;;;;29.25;24.75;;;;;9.98;55.22;102728.50;5113600;27;49848;-69
2022/03/22 06:29:05;;;;;;;;;36.75;32.00;;;;;9.68;55.43;102689.28;5116958;27;49823;-84
2022/03/22 06:31:34;;;;;;;;;35.25;29.25;;;;;9.94;55.43;102730.06;5112340;27;51527;-74
2022/03/22 06:34:01;;;;;;;;;35.50;35.00;;;;;9.89;55.82;102715.78;5107590;27;49674;-68
2022/03/22 06:36:28;;;;;;;;;23.75;21.00;;;;;9.99;55.19;102727.69;5113996;27;49937;-69
2022/03/22 06:38:53;;;;;;;;;35.25;24.00;;;;;9.81;55.51;102689.94;5107440;27;49687;-69
2022/03/22 06:41:18;;;;;;;;;31.00;25.00;;;;;10.09;55.18;102735.25;5113771;27;49681;-69
2022/03/22 06:43:44;;;;;;;;;33.00;31.00;;;;;10.11;55.20;102733.59;5113774;27;49919;-66
2022/03/22 06:46:10;;;;;;;;;31.00;30.00;;;;;10.13;55.87;102738.91;5113819;27;49843;-72
2022/03/22 06:48:35;;;;;;;;;30.00;28.25;;;;;9.97;55.31;102719.75;5113916;27;49864;-71
2022/03/22 06:51:01;;;;;;;;;36.25;30.50;;;;;10.09;55.14;102730.00;5113256;27;50237;-71
2022/03/22 06:53:26;;;;;;;;;34.75;31.00;;;;;9.96;55.25;102720.56;5113477;27;49781;-73
2022/03/22 06:55:52;;;;;;;;;40.75;33.00;;;;;10.19;55.04;102739.25;5113530;27;49737;-66
2022/03/22 06:58:22;;;;;;;;;22.25;22.25;;;;;10.21;54.37;102746.38;5113626;27;49917;-70
2022/03/22 07:00:51;;;;;;;;;41.50;36.00;;;;;10.26;55.03;102751.94;5113506;27;50743;-71
2022/03/22 07:03:18;;;;;;;;;26.75;23.75;;;;;10.12;53.93;102709.16;5113486;27;49851;-71
2022/03/22 07:05:45;;;;;;;;;31.00;29.00;;;;;10.23;54.38;102728.13;5113278;27;49702;-70
2022/03/22 07:08:12;;;;;;;;;26.25;22.25;;;;;10.17;54.75;102706.78;5113346;27;50092;-66
2022/03/22 07:10:37;;;;;;;;;26.50;25.25;;;;;10.28;53.89;102721.41;5111682;27;51245;-71
2022/03/22 07:13:06;;;;;;;;;32.25;31.00;;;;;10.28;53.48;102717.06;5113218;27;49790;-73
2022/03/22 07:15:35;;;;;;;;;39.25;34.00;;;;;10.42;53.80;102741.44;5113463;27;49785;-69
2022/03/22 07:18:03;;;;;;;;;42.25;35.75;;;;;10.52;53.42;102754.22;5113650;27;49654;-73
2022/03/22 07:20:29;;;;;;;;;33.25;30.75;;;;;10.55;54.08;102753.47;5112026;27;50833;-72
2022/03/22 07:22:55;;;;;;;;;36.75;32.25;;;;;10.52;53.46;102750.72;5112896;27;50918;-72
2022/03/22 07:25:21;;;;;;;;;32.50;31.25;;;;;10.44;53.49;102731.00;5113037;27;49727;-69
2022/03/22 07:27:47;;;;;;;;;38.75;33.50;;;;;10.51;52.90;102736.63;5112967;27;49746;-71
2022/03/22 07:30:14;;;;;;;;;34.00;29.00;;;;;10.61;53.04;102748.53;5112949;27;50820;-72
2022/03/22 07:32:40;;;;;;;;;33.75;29.25;;;;;10.74;52.91;102756.25;5112964;27;49923;-66
2022/03/22 07:35:07;;;;;;;;;37.00;33.00;;;;;10.78;52.94;102760.81;5112832;27;49664;-72
2022/03/22 07:37:34;;;;;;;;;36.50;31.75;;;;;10.33;52.69;102677.94;5113290;27;49965;-74
2022/03/22 07:40:00;;;;;;;;;38.50;35.00;;;;;10.89;52.94;102767.53;5112625;27;49742;-73
2022/03/22 07:42:29;;;;;;;;;37.50;35.75;;;;;10.92;52.27;102768.53;5112693;27;50155;-74
2022/03/22 07:44:56;;;;;;;;;40.25;34.25;;;;;10.74;52.18;102724.72;5119413;27;49826;-74
2022/03/22 07:47:22;;;;;;;;;35.50;33.00;;;;;10.82;52.56;102739.16;5111740;27;49868;-74
2022/03/22 07:55:15;;;;;;;;;28.25;27.00;;;;;11.08;51.72;102752.69;5112709;27;49962;-72
2022/03/22 07:57:41;;;;;;;;;35.50;34.50;;;;;11.10;51.77;102754.59;5111076;27;49735;-72
2022/03/22 08:00:07;;;;;;;;;36.75;33.50;;;;;11.21;52.29;102752.50;5110418;27;52243;-71
2022/03/22 08:02:36;;;;;;;;;30.75;28.50;;;;;10.29;51.04;102586.72;5112295;27;49785;-67
2022/03/22 08:05:04;;;;;;;;;35.75;34.50;;;;;11.33;51.39;102754.84;5112395;27;49847;-72
2022/03/22 08:07:30;;;;;;;;;37.25;34.00;;;;;11.39;51.32;102755.16;5112807;27;50119;-67
2022/03/22 08:09:56;;;;;;;;;33.75;30.00;;;;;9.75;50.59;102455.41;5112481;27;50051;-72
2022/03/22 08:12:21;;;;;;;;;37.25;31.50;;;;;11.02;51.16;102668.31;5112155;27;50169;-72
2022/03/22 08:14:47;;;;;;;;;36.75;33.50;;;;;11.58;50.73;102777.94;5112405;27;49701;-70
2022/03/22 08:17:12;;;;;;;;;32.25;31.50;;;;;10.01;50.46;102500.38;5112443;27;49678;-72
2022/03/22 08:19:37;;;;;;;;;36.75;35.00;;;;;11.78;50.36;102777.22;5111400;27;49647;-69
2022/03/22 08:22:03;;;;;;;;;33.75;32.75;;;;;11.85;50.22;102774.06;5111371;27;49926;-67
2022/03/22 08:24:28;;;;;;;;;36.00;31.50;;;;;11.93;49.82;102784.97;5106363;27;49780;-67
2022/03/22 08:26:54;;;;;;;;;41.00;35.00;;;;;11.98;49.45;102787.00;5113732;27;49867;-70
2022/03/22 08:29:20;;;;;;;;;36.50;35.00;;;;;12.04;49.38;102784.63;5113887;27;50418;-66
2022/03/22 08:31:45;;;;;;;;;41.75;33.50;;;;;12.12;49.04;102789.34;5111758;27;49982;-65
2022/03/22 08:34:10;;;;;;;;;34.00;30.75;;;;;12.16;48.58;102771.16;5111261;27;49916;-68
2022/03/22 08:36:36;;;;;;;;;36.50;33.75;;;;;12.04;47.97;102738.97;5105477;27;49707;-66
2022/03/22 08:39:01;;;;;;;;;34.50;31.00;;;;;12.31;48.37;102776.22;5111372;27;49800;-71
2022/03/22 08:41:26;;;;;;;;;38.75;34.25;;;;;12.30;47.63;102759.50;5110660;27;49817;-64
2022/03/22 08:43:55;;;;;;;;;36.75;32.00;;;;;12.26;47.42;102740.88;5111746;27;49761;-64
2022/03/22 08:46:24;;;;;;;;;38.00;35.25;;;;;12.50;47.34;102776.22;5105797;27;49883;-64
2022/03/22 08:48:51;;;;;;;;;37.50;33.75;;;;;12.60;47.09;102775.78;5112770;27;50006;-64
2022/03/22 08:51:18;;;;;;;;;30.25;27.75;;;;;12.67;47.08;102774.34;5115023;27;50063;-64
2022/03/22 08:53:44;;;;;;;;;31.50;29.00;;;;;12.65;46.89;102768.09;5105432;27;49648;-64
2022/03/22 08:56:10;;;;;;;;;37.25;35.25;;;;;12.74;46.84;102773.78;5111512;27;49876;-63
2022/03/22 08:58:35;;;;;;;;;28.25;28.25;;;;;12.61;47.17;102743.34;5111511;27;49917;-64
2022/03/22 09:01:00;;;;;;;;;36.75;33.25;;;;;12.94;45.78;102766.75;5111804;27;49696;-69
2022/03/22 09:03:28;;;;;;;;;39.00;29.00;;;;;12.75;44.10;102728.13;5111386;27;51009;-71
2022/03/22 09:06:09;;;;;;;;;30.25;29.25;;;;;12.85;43.36;102737.34;5111967;27;50025;-71
2022/03/22 09:08:39;;;;;;;;;28.50;26.00;;;;;13.10;40.46;102763.91;5105250;27;49833;-72
2022/03/22 09:11:06;;;;;;;;;24.50;23.50;;;;;12.69;37.89;102684.81;5111574;27;49784;-72
2022/03/22 09:13:33;;;;;;;;;23.50;23.50;;;;;13.14;37.34;102762.31;5111465;27;49869;-71
2022/03/22 09:15:58;;;;;;;;;28.00;24.75;;;;;13.15;36.24;102746.53;5109446;27;49952;-62
2022/03/22 09:18:25;;;;;;;;;25.50;24.00;;;;;13.30;35.89;102766.50;5111245;27;50516;-65
2022/03/22 09:20:51;;;;;;;;;25.25;22.50;;;;;13.27;34.63;102751.47;5109567;27;49693;-72
2022/03/22 09:23:17;;;;;;;;;21.00;20.25;;;;;13.40;35.58;102769.56;5110561;27;49624;-67
2022/03/22 09:25:43;;;;;;;;;21.00;21.00;;;;;13.35;35.15;102743.88;5111604;27;49966;-68
2022/03/22 09:28:10;;;;;;;;;29.50;25.75;;;;;13.41;33.55;102759.91;5111106;27;49805;-68
2022/03/22 09:30:38;;;;;;;;;23.00;20.00;;;;;13.46;32.53;102756.66;5111391;27;49698;-64
2022/03/22 09:33:04;;;;;;;;;21.25;19.75;;;;;13.64;32.38;102771.44;5111219;27;49736;-65
2022/03/22 09:35:30;;;;;;;;;25.50;23.75;;;;;13.67;32.15;102774.19;5109705;27;50066;-74
2022/03/22 09:37:56;;;;;;;;;22.75;21.00;;;;;13.54;31.03;102749.06;5110475;27;49826;-75
2022/03/22 09:40:26;;;;;;;;;15.75;15.75;;;;;13.71;30.62;102755.00;5123126;27;50031;-72
2022/03/22 09:42:54;;;;;;;;;17.75;17.75;;;;;13.89;29.58;102770.63;5109895;27;49750;-66
2022/03/22 09:45:27;;;;;;;;;18.50;14.75;;;;;13.85;29.33;102756.44;5114151;27;49976;-66
2022/03/22 09:47:54;;;;;;;;;16.50;16.00;;;;;13.68;28.47;102713.53;5114627;27;49814;-62
2022/03/22 09:51:44;;;;;;;;;21.00;18.25;;;;;14.06;28.29;102763.38;5114382;27;49846;-65
2022/03/22 09:53:06;;;;;;;;;16.25;14.00;;;;;14.02;28.39;102746.53;5109322;27;49955;-66
2022/03/22 09:55:34;;;;;;;;;18.75;16.00;;;;;14.18;28.98;102762.09;5114558;27;49662;-62
2022/03/22 09:58:00;;;;;;;;;19.75;18.00;;;;;14.21;28.51;102762.22;5114065;27;50076;-69
2022/03/22 10:00:26;;;;;;;;;19.00;16.25;;;;;13.98;28.78;102727.00;5114411;27;49830;-64
2022/03/22 10:02:51;;;;;;;;;13.50;12.50;;;;;14.30;28.51;102772.25;5114340;27;49729;-64
2022/03/22 10:05:24;;;;;;;;;20.50;15.00;;;;;14.17;28.05;102730.34;5112514;27;49994;-65
2022/03/22 10:08:15;;;;;;;;;19.50;19.25;;;;;14.35;27.97;102759.19;5113557;27;49844;-64
2022/03/22 10:10:56;;;;;;;;;18.25;14.00;;;;;14.20;25.93;102725.19;5108676;27;49797;-65
2022/03/22 10:13:21;;;;;;;;;14.25;13.25;;;;;14.42;26.97;102766.53;5113620;27;49727;-69
2022/03/22 10:15:47;;;;;;;;;20.75;18.75;;;;;14.39;26.23;102753.19;5114195;27;49724;-65
2022/03/22 10:18:12;;;;;;;;;21.25;17.50;;;;;14.30;26.34;102724.69;5114048;27;50452;-65
2022/03/22 10:20:40;;;;;;;;;20.25;18.75;;;;;14.53;26.11;102763.44;5114000;27;49861;-61
2022/03/22 10:23:10;;;;;;;;;16.00;16.00;;;;;14.54;26.75;102762.59;5114048;27;49992;-60
2022/03/22 10:25:40;;;;;;;;;22.00;20.75;;;;;14.60;26.67;102759.28;5113708;27;49951;-61
2022/03/22 10:28:07;;;;;;;;;17.00;16.50;;;;;14.64;26.17;102747.97;5113501;27;50513;-61
2022/03/22 10:30:34;;;;;;;;;15.50;15.50;;;;;14.67;26.62;102748.09;5113538;27;49786;-61
2022/03/22 10:33:00;;;;;;;;;19.75;18.00;;;;;14.66;26.40;102750.66;5113520;27;49785;-61
2022/03/22 10:35:34;;;;;;;;;14.75;13.50;;;;;14.65;26.49;102741.84;5113566;27;49739;-65
2022/03/22 10:38:04;;;;;;;;;18.75;17.50;;;;;14.72;27.02;102740.31;5113317;27;50623;-66
2022/03/22 10:40:34;;;;;;;;;20.75;18.75;;;;;14.76;27.57;102745.75;5113463;27;49710;-69
2022/03/22 10:43:04;;;;;;;;;18.25;17.50;;;;;14.66;27.61;102724.22;5113518;27;49663;-66
2022/03/22 10:45:49;;;;;;;;;6.25;5.50;;;;;14.87;27.23;102748.81;5107246;27;49912;-62
2022/03/22 10:48:20;;;;;;;;;25.25;21.75;;;;;14.91;27.59;102744.50;5110310;27;50124;-65
2022/03/22 10:50:47;;;;;;;;;17.00;16.25;;;;;14.77;27.77;102700.00;5109133;27;49932;-68
2022/03/22 10:53:17;;;;;;;;;22.00;20.50;;;;;15.07;27.04;102745.09;5112360;27;49619;-67
2022/03/22 10:55:45;;;;;;;;;21.25;19.50;;;;;15.13;27.00;102737.34;5103671;27;50414;-60
2022/03/22 10:58:13;;;;;;;;;19.00;15.75;;;;;15.17;26.77;102733.97;5112989;27;50495;-67
2022/03/22 11:00:44;;;;;;;;;19.50;19.50;;;;;15.27;26.44;102745.75;5112549;27;49606;-63
2022/03/22 11:03:10;;;;;;;;;20.00;16.75;;;;;15.29;26.56;102733.47;5112936;27;49819;-60
2022/03/22 11:05:36;;;;;;;;;19.67;18.33;;;;;15.30;26.12;102744.94;5112762;27;50031;-62
2022/03/22 11:08:02;;;;;;;;;18.50;16.75;;;;;15.16;26.35;102708.38;5112837;27;50356;-70
2022/03/22 11:10:31;;;;;;;;;18.00;17.00;;;;;15.37;26.24;102726.69;5113022;27;50089;-66
2022/03/22 11:13:00;;;;;;;;;18.75;17.50;;;;;15.40;25.97;102724.13;5112416;27;49744;-70
2022/03/22 11:15:35;;;;;;;;;25.25;19.25;;;;;15.29;26.60;102709.66;5112873;27;49841;-63
2022/03/22 11:18:02;;;;;;;;;17.00;16.00;;;;;15.51;26.75;102726.22;5112616;27;50359;-72
2022/03/22 11:20:28;;;;;;;;;23.50;19.00;;;;;15.35;26.59;102690.44;5112549;27;49693;-67
2022/03/22 11:22:57;;;;;;;;;21.25;17.75;;;;;15.48;26.24;102716.44;5112463;27;49724;-72
2022/03/22 11:25:35;;;;;;;;;18.00;16.50;;;;;15.61;26.52;102730.97;5112474;27;49643;-65
2022/03/22 11:28:06;;;;;;;;;17.75;17.75;;;;;15.38;26.08;102670.25;5111742;27;49701;-66
2022/03/22 11:30:33;;;;;;;;;19.75;16.75;;;;;15.51;26.08;102691.81;5110828;27;49686;-73
2022/03/22 11:35:51;;;;;;;;;20.75;19.00;;;;;15.60;25.59;102694.75;5107420;27;49821;-67
2022/03/22 11:38:52;;;;;;;;;16.00;16.00;;;;;15.76;24.97;102707.63;5111212;27;50877;-72
2022/03/22 11:44:15;;;;;;;;;18.25;18.25;;;;;15.92;25.75;102701.03;5109193;27;49965;-74
2022/03/22 11:46:41;;;;;;;;;16.00;16.00;;;;;15.95;24.92;102696.75;5112353;27;51169;-69